Time;durP1;ratioP1;P1;durP2;ratioP2;P2;SDS_P1;SDS_P2;PMS_P1;PMS_P2;Temp;Humidity;BMP_temperature;BMP_pressure;BME280_temperature;BME280_humidity;BME280_pressure;Samples;Min_cycle;Max_cycle;Signal;HPM_P1;HPM_P2
2023/12/15 00:14:04;;;;;;;0.40;0.40;;;;;;;;;;5028721;28;20270;-90
2023/12/15 00:39:08;;;;;;;0.50;0.50;;;;;;;;;;5031623;28;20199;-90
2023/12/15 00:42:07;;;;;;;0.27;0.27;;;;;;;;;;5049875;28;20207;-90
2023/12/15 01:06:30;;;;;;;0.10;0.10;;;;;;;;;;5022018;28;20218;-90
2023/12/15 01:15:29;;;;;;;0.27;0.20;;;;;;;;;;5033593;28;20234;-88
2023/12/15 01:18:35;;;;;;;0.93;0.27;;;;;;;;;;5037345;28;20208;-88
2023/12/15 01:21:43;;;;;;;0.00;0.00;;;;;;;;;;5049971;28;20291;-90
2023/12/15 01:24:41;;;;;;;0.20;0.20;;;;;;;;;;5057883;28;20241;-88
2023/12/15 01:27:37;;;;;;;0.20;0.10;;;;;;;;;;5052374;28;20273;-90
2023/12/15 01:33:26;;;;;;;0.20;0.20;;;;;;;;;;5038048;28;20366;-91
2023/12/15 01:36:13;;;;;;;0.30;0.30;;;;;;;;;;5030790;28;20204;-90
2023/12/15 01:44:20;;;;;;;0.60;0.60;;;;;;;;;;5038239;28;20212;-89
2023/12/15 01:47:05;;;;;;;0.37;0.37;;;;;;;;;;5033241;28;20728;-89
2023/12/15 01:49:50;;;;;;;0.20;0.20;;;;;;;;;;5016496;28;20205;-89
2023/12/15 01:52:38;;;;;;;1.07;0.40;;;;;;;;;;5033389;28;20245;-90
2023/12/15 01:55:20;;;;;;;0.30;0.30;;;;;;;;;;5019156;28;20275;-88
2023/12/15 01:57:57;;;;;;;0.40;0.40;;;;;;;;;;5014184;28;20208;-88
2023/12/15 02:00:31;;;;;;;0.13;0.13;;;;;;;;;;5025320;28;20208;-87
2023/12/15 02:03:16;;;;;;;0.40;0.40;;;;;;;;;;5026367;28;20203;-89
2023/12/15 02:06:00;;;;;;;0.30;0.10;;;;;;;;;;5033293;28;20243;-89
2023/12/15 02:08:47;;;;;;;0.20;0.20;;;;;;;;;;5033089;28;20830;-90
2023/12/15 02:14:22;;;;;;;0.20;0.20;;;;;;;;;;5014186;28;20917;-88
2023/12/15 02:16:55;;;;;;;0.33;0.33;;;;;;;;;;5018594;28;20670;-91
2023/12/15 02:19:30;;;;;;;0.10;0.10;;;;;;;;;;5017847;28;20610;-91
2023/12/15 02:25:35;;;;;;;0.43;0.43;;;;;;;;;;5018471;28;20253;-91
2023/12/15 02:31:35;;;;;;;0.33;0.33;;;;;;;;;;5025858;28;20208;-89
2023/12/15 02:34:35;;;;;;;0.37;0.37;;;;;;;;;;5021099;28;20354;-90
2023/12/15 02:37:39;;;;;;;0.20;0.20;;;;;;;;;;5012579;28;20622;-91
2023/12/15 02:43:20;;;;;;;0.70;0.70;;;;;;;;;;5011746;28;20211;-92
2023/12/15 02:49:18;;;;;;;0.60;0.60;;;;;;;;;;5017829;28;20208;-90
2023/12/15 03:00:28;;;;;;;1.00;1.00;;;;;;;;;;5010272;28;20215;-91
2023/12/15 03:09:26;;;;;;;1.50;1.40;;;;;;;;;;5021366;28;20284;-90
2023/12/15 03:12:01;;;;;;;1.97;1.87;;;;;;;;;;5027674;28;20218;-90
2023/12/15 03:14:39;;;;;;;1.60;1.50;;;;;;;;;;5022673;28;20294;-90
2023/12/15 03:23:14;;;;;;;2.07;1.97;;;;;;;;;;5018426;28;20210;-90
2023/12/15 03:25:53;;;;;;;2.40;2.20;;;;;;;;;;5022899;28;20275;-90
2023/12/15 03:28:48;;;;;;;2.40;2.20;;;;;;;;;;5024036;28;20220;-90
2023/12/15 03:31:19;;;;;;;3.20;2.90;;;;;;;;;;5033426;28;20325;-91
2023/12/15 03:34:04;;;;;;;2.27;2.13;;;;;;;;;;5026244;28;20688;-90
2023/12/15 03:36:38;;;;;;;3.40;2.87;;;;;;;;;;5012525;28;20201;-89
2023/12/15 03:39:11;;;;;;;3.80;3.50;;;;;;;;;;5035809;28;20203;-88
2023/12/15 03:41:42;;;;;;;2.63;2.43;;;;;;;;;;5038761;28;20275;-89
2023/12/15 03:44:19;;;;;;;3.03;2.53;;;;;;;;;;5033145;28;20230;-90
2023/12/15 03:46:58;;;;;;;2.63;2.53;;;;;;;;;;5024850;28;20204;-89
2023/12/15 03:58:13;;;;;;;2.07;1.93;;;;;;;;;;5026173;28;20212;-89
2023/12/15 04:00:45;;;;;;;3.30;3.03;;;;;;;;;;5030902;28;20326;-89
2023/12/15 04:03:18;;;;;;;5.17;3.07;;;;;;;;;;5043693;28;20314;-89
2023/12/15 04:05:54;;;;;;;4.50;3.77;;;;;;;;;;5038243;28;20258;-89
2023/12/15 04:08:28;;;;;;;3.07;2.80;;;;;;;;;;5025603;28;20196;-91
2023/12/15 04:10:59;;;;;;;2.93;2.73;;;;;;;;;;5019887;28;20228;-89
2023/12/15 04:13:32;;;;;;;3.30;3.03;;;;;;;;;;5022571;28;20200;-88
2023/12/15 04:16:11;;;;;;;6.50;4.77;;;;;;;;;;5018065;28;20262;-89
2023/12/15 04:18:46;;;;;;;5.93;4.10;;;;;;;;;;5023566;28;20204;-88
2023/12/15 04:21:21;;;;;;;3.50;3.20;;;;;;;;;;5017604;28;20617;-88
2023/12/15 04:23:56;;;;;;;4.83;3.63;;;;;;;;;;5031938;28;20219;-89
2023/12/15 04:26:28;;;;;;;5.30;3.70;;;;;;;;;;5020067;28;20208;-90
2023/12/15 04:29:00;;;;;;;3.57;3.10;;;;;;;;;;5021979;28;20268;-90
2023/12/15 04:34:52;;;;;;;4.53;3.50;;;;;;;;;;5017344;28;20242;-89
2023/12/15 04:37:36;;;;;;;3.83;3.13;;;;;;;;;;5032943;28;20211;-89
2023/12/15 04:43:29;;;;;;;3.47;3.17;;;;;;;;;;5030436;28;20215;-89
2023/12/15 05:04:53;;;;;;;3.60;3.07;;;;;;;;;;5885317;23;20205;-89
2023/12/15 07:13:05;;;;;;;5.67;4.17;;;;;;;;;;6170575;22;20204;-87
2023/12/15 07:21:20;;;;;;;3.87;3.40;;;;;;;;;;6157991;23;20543;-89
2023/12/15 07:30:02;;;;;;;4.57;3.33;;;;;;;;;;6167810;22;20243;-90
2023/12/15 07:32:58;;;;;;;4.70;4.17;;;;;;;;;;6170948;23;20275;-88
2023/12/15 10:17:25;;;;;;;8.47;5.50;;;;;;;;;;6308218;22;20619;-89
2023/12/15 10:26:18;;;;;;;10.00;5.67;;;;;;;;;;6268100;22;20214;-90
2023/12/15 10:29:16;;;;;;;8.07;5.03;;;;;;;;;;6372658;22;20191;-88
2023/12/15 10:53:39;;;;;;;9.67;5.97;;;;;;;;;;5066531;28;20245;-87
2023/12/15 10:56:08;;;;;;;7.23;4.67;;;;;;;;;;5080758;28;20222;-88
2023/12/15 10:58:56;;;;;;;7.33;5.93;;;;;;;;;;5076120;28;20222;-88
2023/12/15 11:01:57;;;;;;;3.97;3.60;;;;;;;;;;5077789;28;20223;-90
2023/12/15 11:07:51;;;;;;;6.87;4.73;;;;;;;;;;5067925;28;20736;-88
2023/12/15 11:29:17;;;;;;;4.20;3.70;;;;;;;;;;5064709;28;20246;-89
2023/12/15 11:40:41;;;;;;;4.80;3.60;;;;;;;;;;5022656;28;20242;-89
2023/12/15 11:43:40;;;;;;;3.60;3.10;;;;;;;;;;5037308;28;20322;-89
2023/12/15 11:46:26;;;;;;;3.97;3.67;;;;;;;;;;5021189;28;20832;-87
2023/12/15 11:52:14;;;;;;;5.30;3.63;;;;;;;;;;5017318;28;20267;-89
2023/12/15 11:54:49;;;;;;;7.83;4.17;;;;;;;;;;5021818;28;20315;-90
2023/12/15 11:57:27;;;;;;;4.93;4.30;;;;;;;;;;5024551;28;20233;-90
2023/12/15 11:59:59;;;;;;;5.23;4.63;;;;;;;;;;5016938;28;20287;-90
2023/12/15 12:02:29;;;;;;;9.03;5.00;;;;;;;;;;5006796;28;20233;-89
2023/12/15 12:05:01;;;;;;;9.83;5.27;;;;;;;;;;5010799;28;20331;-88
2023/12/15 12:07:30;;;;;;;9.60;4.23;;;;;;;;;;5003696;28;20293;-89
2023/12/15 12:10:17;;;;;;;5.33;3.47;;;;;;;;;;5011241;28;20609;-88
2023/12/15 12:12:49;;;;;;;2.30;2.10;;;;;;;;;;5004595;28;20283;-88
2023/12/15 12:15:21;;;;;;;2.37;2.17;;;;;;;;;;5010514;28;20514;-86
2023/12/15 12:17:59;;;;;;;2.13;1.93;;;;;;;;;;5006321;28;20287;-88
2023/12/15 12:23:27;;;;;;;2.53;2.33;;;;;;;;;;5003728;28;20244;-90
2023/12/15 12:26:03;;;;;;;2.77;2.47;;;;;;;;;;5007045;28;20319;-88
2023/12/15 12:28:44;;;;;;;2.33;2.17;;;;;;;;;;5010023;28;20720;-89
2023/12/15 12:31:27;;;;;;;1.77;1.67;;;;;;;;;;5005036;28;20311;-89
2023/12/15 12:37:04;;;;;;;2.37;2.07;;;;;;;;;;4954446;28;20295;-90
2023/12/15 12:42:35;;;;;;;2.27;2.03;;;;;;;;;;4970660;28;20238;-86
2023/12/15 12:45:19;;;;;;;2.33;2.03;;;;;;;;;;4958304;28;20230;-88
2023/12/15 12:47:55;;;;;;;4.17;2.77;;;;;;;;;;4948602;28;20274;-87
2023/12/15 12:50:24;;;;;;;1.83;1.73;;;;;;;;;;4962977;28;20247;-88
2023/12/15 12:52:55;;;;;;;4.67;2.23;;;;;;;;;;4967378;28;20264;-87
2023/12/15 12:55:28;;;;;;;3.10;2.30;;;;;;;;;;4972396;28;20245;-86
2023/12/15 12:58:02;;;;;;;2.60;2.40;;;;;;;;;;4966261;28;20323;-87
2023/12/15 13:00:33;;;;;;;2.60;2.40;;;;;;;;;;4971903;28;20543;-86
2023/12/15 13:03:15;;;;;;;2.80;2.27;;;;;;;;;;4951042;28;20238;-87
2023/12/15 13:05:48;;;;;;;1.80;1.70;;;;;;;;;;4980187;28;20257;-88
2023/12/15 13:08:22;;;;;;;1.80;1.70;;;;;;;;;;4963466;28;20605;-88
2023/12/15 13:10:55;;;;;;;2.03;1.93;;;;;;;;;;4976524;28;20285;-88
2023/12/15 13:13:31;;;;;;;2.10;2.00;;;;;;;;;;4973390;28;20229;-87
2023/12/15 13:16:19;;;;;;;3.40;2.13;;;;;;;;;;4979406;28;20504;-87
2023/12/15 13:18:54;;;;;;;2.37;2.17;;;;;;;;;;4972700;28;20298;-88
2023/12/15 13:21:26;;;;;;;3.03;2.00;;;;;;;;;;4971783;28;20293;-88
2023/12/15 13:23:56;;;;;;;1.27;1.27;;;;;;;;;;4967935;28;20320;-88
2023/12/15 13:26:29;;;;;;;3.90;1.97;;;;;;;;;;4958484;28;20226;-86
2023/12/15 13:29:00;;;;;;;5.90;2.30;;;;;;;;;;4952139;28;20704;-87
2023/12/15 13:31:28;;;;;;;2.17;2.03;;;;;;;;;;4967783;28;20288;-87
2023/12/15 13:33:59;;;;;;;1.80;1.70;;;;;;;;;;4971383;28;20268;-85
2023/12/15 13:36:28;;;;;;;1.93;1.30;;;;;;;;;;4968202;28;20342;-86
2023/12/15 13:38:56;;;;;;;2.23;2.00;;;;;;;;;;4977515;28;20230;-84
2023/12/15 13:41:24;;;;;;;1.77;1.67;;;;;;;;;;4987637;28;20244;-84
2023/12/15 13:43:53;;;;;;;1.50;1.40;;;;;;;;;;4978162;28;20218;-84
2023/12/15 13:46:23;;;;;;;0.97;0.90;;;;;;;;;;4962083;28;20699;-86
2023/12/15 13:48:54;;;;;;;1.40;1.37;;;;;;;;;;4968297;28;20309;-84
2023/12/15 13:51:24;;;;;;;1.43;1.07;;;;;;;;;;4969599;28;20653;-86
2023/12/15 13:53:54;;;;;;;3.03;1.47;;;;;;;;;;4971269;28;20237;-86
2023/12/15 13:56:28;;;;;;;1.10;1.10;;;;;;;;;;4960953;28;20277;-86
2023/12/15 13:59:15;;;;;;;;;;;;;;;;;;;;;
2023/12/15 14:01:46;;;;;;;1.50;1.10;;;;;;;;;;4961824;28;20246;-86
2023/12/15 14:04:15;;;;;;;1.00;1.00;;;;;;;;;;4951814;28;20308;-85
2023/12/15 14:06:49;;;;;;;1.90;1.03;;;;;;;;;;4948913;28;20244;-85
2023/12/15 14:09:24;;;;;;;0.97;0.70;;;;;;;;;;4944909;28;20238;-87
2023/12/15 14:12:00;;;;;;;2.87;1.97;;;;;;;;;;4950402;28;20258;-84
2023/12/15 14:14:31;;;;;;;0.97;0.70;;;;;;;;;;4959745;28;20201;-85
2023/12/15 14:17:02;;;;;;;1.73;0.73;;;;;;;;;;4962449;28;20233;-85
2023/12/15 14:19:41;;;;;;;1.60;0.73;;;;;;;;;;4970429;28;20202;-85
2023/12/15 14:22:16;;;;;;;1.67;1.57;;;;;;;;;;4970269;28;20662;-84
2023/12/15 14:24:47;;;;;;;6.53;2.30;;;;;;;;;;4971176;28;20202;-86
2023/12/15 14:27:17;;;;;;;1.17;1.07;;;;;;;;;;4962445;28;20245;-86
2023/12/15 14:29:46;;;;;;;0.87;0.87;;;;;;;;;;4970589;28;20232;-86
2023/12/15 14:32:15;;;;;;;1.80;0.93;;;;;;;;;;4962640;28;20244;-85
2023/12/15 14:34:48;;;;;;;0.63;0.63;;;;;;;;;;4970773;28;20281;-85
2023/12/15 14:37:20;;;;;;;0.60;0.60;;;;;;;;;;4972288;28;20679;-85
2023/12/15 14:39:56;;;;;;;2.13;1.20;;;;;;;;;;4969287;28;20304;-85
2023/12/15 14:42:30;;;;;;;0.63;0.63;;;;;;;;;;4975886;28;20194;-85
2023/12/15 14:45:02;;;;;;;1.13;1.03;;;;;;;;;;4969876;28;20198;-85
2023/12/15 14:47:46;;;;;;;0.60;0.60;;;;;;;;;;4979162;28;20210;-86
2023/12/15 14:50:17;;;;;;;0.80;0.80;;;;;;;;;;4970199;28;20233;-85
2023/12/15 14:52:48;;;;;;;2.00;1.90;;;;;;;;;;4973172;28;20202;-86
2023/12/15 14:55:19;;;;;;;0.90;0.90;;;;;;;;;;4974092;28;20220;-86
2023/12/15 14:57:51;;;;;;;2.93;1.10;;;;;;;;;;4975585;28;20273;-84
2023/12/15 15:00:24;;;;;;;1.00;1.00;;;;;;;;;;4968656;28;20225;-86
2023/12/15 15:03:09;;;;;;;2.00;1.27;;;;;;;;;;4962252;28;20519;-86
2023/12/15 15:05:43;;;;;;;0.90;0.90;;;;;;;;;;4963110;28;20202;-87
2023/12/15 15:08:13;;;;;;;0.80;0.80;;;;;;;;;;4973437;28;20215;-87
2023/12/15 15:10:46;;;;;;;0.50;0.50;;;;;;;;;;4974529;28;20229;-87
2023/12/15 15:16:55;;;;;;;1.73;0.73;;;;;;;;;;4939887;27;3722353;-86
2023/12/15 15:19:35;;;;;;;0.27;0.27;;;;;;;;;;5048726;28;20200;-85
2023/12/15 15:22:15;;;;;;;1.23;0.77;;;;;;;;;;5050292;28;20207;-87
2023/12/15 15:24:51;;;;;;;0.50;0.50;;;;;;;;;;5049780;28;20206;-87
2023/12/15 15:27:28;;;;;;;0.80;0.80;;;;;;;;;;5048346;28;20195;-86
2023/12/15 15:30:07;;;;;;;0.67;0.50;;;;;;;;;;5049885;28;20722;-86
2023/12/15 15:32:52;;;;;;;;;;;;;;;;;;;;;
2023/12/15 15:35:43;;;;;;;2.33;0.73;;;;;;;;;;5027614;28;20227;-85
2023/12/15 15:38:24;;;;;;;4.60;1.07;;;;;;;;;;5029214;28;20200;-86
2023/12/15 15:41:03;;;;;;;1.40;1.30;;;;;;;;;;5028672;28;20254;-85
2023/12/15 15:43:50;;;;;;;0.90;0.90;;;;;;;;;;5028834;28;20199;-86
2023/12/15 15:46:28;;;;;;;1.77;1.67;;;;;;;;;;5028438;28;20556;-86
2023/12/15 15:49:11;;;;;;;1.50;1.40;;;;;;;;;;5028433;28;20216;-86
2023/12/15 15:52:13;;;;;;;1.03;1.03;;;;;;;;;;5028584;28;20208;-86
2023/12/15 15:58:12;;;;;;;3.47;1.33;;;;;;;;;;4971424;28;20204;-87
2023/12/15 16:01:10;;;;;;;2.03;1.93;;;;;;;;;;5030844;28;20283;-85
2023/12/15 16:12:27;;;;;;;1.20;1.20;;;;;;;;;;5029500;28;20659;-87
2023/12/15 16:18:11;;;;;;;1.00;0.90;;;;;;;;;;5049235;28;20200;-85
2023/12/15 16:20:57;;;;;;;;;;;;;;;;;;;;;
2023/12/15 16:27:14;;;;;;;;;;;;;;;;;;;;;
2023/12/15 16:29:54;;;;;;;1.13;1.03;;;;;;;;;;5036494;28;20223;-84
2023/12/15 16:32:31;;;;;;;0.87;0.87;;;;;;;;;;5036663;28;20327;-84
2023/12/15 16:38:16;;;;;;;1.13;1.10;;;;;;;;;;5029810;28;20215;-83
2023/12/15 16:41:09;;;;;;;1.27;1.27;;;;;;;;;;5033376;28;20218;-85
2023/12/15 16:43:50;;;;;;;1.30;1.20;;;;;;;;;;5039548;28;20223;-85
2023/12/15 16:46:32;;;;;;;1.23;1.07;;;;;;;;;;5033541;28;20204;-85
2023/12/15 17:04:29;;;;;;;;;;;;;;;;;;;;;
2023/12/15 17:07:07;;;;;;;0.40;0.40;;;;;;;;;;5026888;28;20283;-85
2023/12/15 17:10:05;;;;;;;0.50;0.50;;;;;;;;;;5023399;28;20385;-84
2023/12/15 17:12:46;;;;;;;2.20;1.00;;;;;;;;;;5032127;28;20203;-85
2023/12/15 17:15:25;;;;;;;0.93;0.93;;;;;;;;;;5031202;28;20344;-85
2023/12/15 17:17:55;;;;;;;0.67;0.67;;;;;;;;;;5030219;28;20571;-85
2023/12/15 17:20:43;;;;;;;1.27;0.60;;;;;;;;;;5030697;28;20513;-85
2023/12/15 17:23:44;;;;;;;0.57;0.57;;;;;;;;;;5035541;28;20200;-86
2023/12/15 17:26:38;;;;;;;0.40;0.40;;;;;;;;;;5035522;28;20215;-84
2023/12/15 17:29:09;;;;;;;6.73;0.73;;;;;;;;;;5026856;28;20743;-84
2023/12/15 17:31:47;;;;;;;1.13;0.70;;;;;;;;;;5025439;28;20251;-85
2023/12/15 17:34:18;;;;;;;2.27;1.13;;;;;;;;;;5022944;28;20577;-85
2023/12/15 17:36:55;;;;;;;1.27;0.83;;;;;;;;;;5041497;28;20235;-84
2023/12/15 17:39:24;;;;;;;0.20;0.20;;;;;;;;;;5032495;28;20227;-86
2023/12/15 17:42:20;;;;;;;;;;;;;;;;;;;;;
2023/12/15 17:44:49;;;;;;;0.47;0.47;;;;;;;;;;5028522;28;20220;-85
2023/12/15 17:47:22;;;;;;;0.53;0.53;;;;;;;;;;5028537;28;20315;-85
2023/12/15 17:49:51;;;;;;;0.47;0.47;;;;;;;;;;5033092;28;20224;-84
2023/12/15 17:52:22;;;;;;;0.70;0.70;;;;;;;;;;5032837;28;20230;-84
2023/12/15 17:55:01;;;;;;;2.60;1.10;;;;;;;;;;5031885;28;20319;-85
2023/12/15 17:57:41;;;;;;;0.70;0.70;;;;;;;;;;5033263;28;20235;-86
2023/12/15 18:00:15;;;;;;;0.97;0.60;;;;;;;;;;5024688;28;20323;-84
2023/12/15 18:02:46;;;;;;;1.60;0.83;;;;;;;;;;5037451;28;20224;-86
2023/12/15 18:05:15;;;;;;;0.70;0.60;;;;;;;;;;5029306;28;20309;-85
2023/12/15 18:07:53;;;;;;;0.47;0.47;;;;;;;;;;5027565;28;20234;-84
2023/12/15 18:10:28;;;;;;;0.40;0.40;;;;;;;;;;5030552;28;20228;-85
2023/12/15 18:13:03;;;;;;;0.27;0.27;;;;;;;;;;5023473;28;20231;-85
2023/12/15 18:15:49;;;;;;;0.97;0.77;;;;;;;;;;5031380;28;20231;-86
2023/12/15 18:21:48;;;;;;;1.60;0.30;;;;;;;;;;5028240;28;20235;-86
2023/12/15 18:24:22;;;;;;;1.47;0.70;;;;;;;;;;5038985;28;20219;-86
2023/12/15 18:26:59;;;;;;;0.60;0.40;;;;;;;;;;5030552;28;20240;-85
2023/12/15 18:29:33;;;;;;;0.20;0.20;;;;;;;;;;5032764;28;20223;-85
2023/12/15 18:32:18;;;;;;;1.30;0.63;;;;;;;;;;5029988;28;20285;-85
2023/12/15 18:34:55;;;;;;;0.93;0.93;;;;;;;;;;5029847;28;20238;-85
2023/12/15 18:40:42;;;;;;;0.50;0.50;;;;;;;;;;5016777;28;20355;-85
2023/12/15 18:43:18;;;;;;;1.10;0.90;;;;;;;;;;5027984;28;20223;-85
2023/12/15 18:45:55;;;;;;;2.63;1.33;;;;;;;;;;5024747;28;20235;-85
2023/12/15 18:48:31;;;;;;;6.25;2.28;;;;;;;;;;5030833;28;20650;-86
2023/12/15 18:51:05;;;;;;;2.87;1.77;;;;;;;;;;5025773;28;20208;-85
2023/12/15 18:53:46;;;;;;;0.90;0.90;;;;;;;;;;5028976;28;20242;-85
2023/12/15 18:56:38;;;;;;;1.10;1.10;;;;;;;;;;5012312;28;20227;-86
2023/12/15 18:59:11;;;;;;;0.73;0.73;;;;;;;;;;5020209;28;20315;-86
2023/12/15 19:01:59;;;;;;;0.20;0.20;;;;;;;;;;5036491;28;20252;-86
2023/12/15 19:04:29;;;;;;;1.70;1.37;;;;;;;;;;5043394;28;20254;-85
2023/12/15 19:12:50;;;;;;;0.87;0.87;;;;;;;;;;4996807;28;20224;-85
2023/12/15 19:15:30;;;;;;;1.03;1.03;;;;;;;;;;5002727;28;20315;-86
2023/12/15 19:21:24;;;;;;;;;;;;;;;;;;;;;
2023/12/15 19:26:54;;;;;;;0.63;0.63;;;;;;;;;;4994518;28;20263;-86
2023/12/15 19:29:31;;;;;;;0.60;0.50;;;;;;;;;;4993775;28;20248;-85
2023/12/15 19:32:02;;;;;;;0.60;0.60;;;;;;;;;;4998203;28;20221;-86
2023/12/15 19:34:48;;;;;;;2.53;0.60;;;;;;;;;;4995678;28;20237;-85
2023/12/15 19:37:29;;;;;;;0.43;0.43;;;;;;;;;;4993957;28;20332;-86
2023/12/15 19:40:25;;;;;;;1.57;0.90;;;;;;;;;;4980856;28;20541;-86
2023/12/15 19:43:04;;;;;;;1.10;0.80;;;;;;;;;;4994893;28;20240;-84
2023/12/15 19:45:42;;;;;;;0.63;0.50;;;;;;;;;;4995820;28;20221;-85
2023/12/15 19:48:25;;;;;;;0.70;0.60;;;;;;;;;;4996828;28;20248;-85
2023/12/15 19:53:49;;;;;;;0.60;0.60;;;;;;;;;;4994167;28;20299;-85
2023/12/15 19:56:32;;;;;;;0.47;0.43;;;;;;;;;;4994677;28;20240;-86
2023/12/15 19:59:27;;;;;;;0.63;0.63;;;;;;;;;;4995550;28;21040;-86
2023/12/15 20:02:02;;;;;;;0.40;0.40;;;;;;;;;;4995542;28;20769;-84
2023/12/15 20:07:47;;;;;;;0.50;0.50;;;;;;;;;;5007504;28;20493;-86
2023/12/15 20:10:22;;;;;;;0.60;0.60;;;;;;;;;;5005097;28;20241;-83
2023/12/15 20:19:18;;;;;;;1.57;0.77;;;;;;;;;;5044236;28;20283;-85
2023/12/15 20:21:56;;;;;;;0.37;0.37;;;;;;;;;;5035479;28;20236;-87
2023/12/15 20:24:33;;;;;;;1.73;0.97;;;;;;;;;;5033897;28;20223;-87
2023/12/15 20:30:13;;;;;;;1.33;0.93;;;;;;;;;;5008886;28;20692;-86
2023/12/15 20:32:50;;;;;;;2.37;1.13;;;;;;;;;;5041448;28;20208;-85
2023/12/15 20:35:33;;;;;;;1.90;0.77;;;;;;;;;;5046037;28;20404;-86
2023/12/15 20:38:25;;;;;;;1.20;0.80;;;;;;;;;;5042687;28;20272;-85
2023/12/15 20:41:35;;;;;;;0.60;0.60;;;;;;;;;;5040331;28;20224;-84
2023/12/15 20:44:20;;;;;;;1.13;0.80;;;;;;;;;;5036837;28;20602;-85
2023/12/15 20:47:16;;;;;;;0.50;0.50;;;;;;;;;;5024017;28;20223;-84
2023/12/15 20:49:51;;;;;;;0.63;0.63;;;;;;;;;;5033270;28;20357;-86
2023/12/15 20:52:40;;;;;;;0.63;0.63;;;;;;;;;;5036906;28;20215;-85
2023/12/15 20:55:27;;;;;;;0.60;0.60;;;;;;;;;;5037717;28;20219;-85
2023/12/15 21:00:52;;;;;;;0.30;0.30;;;;;;;;;;5027560;28;20224;-86
2023/12/15 21:03:24;;;;;;;0.27;0.27;;;;;;;;;;5016292;28;20286;-86
2023/12/15 21:05:53;;;;;;;2.93;0.57;;;;;;;;;;5020873;28;20265;-85
2023/12/15 21:08:24;;;;;;;0.73;0.40;;;;;;;;;;5014172;28;20233;-84
2023/12/15 21:10:55;;;;;;;0.87;0.20;;;;;;;;;;5021682;28;20224;-83
2023/12/15 21:13:23;;;;;;;2.27;0.67;;;;;;;;;;5018199;28;20676;-86
2023/12/15 21:18:47;;;;;;;0.30;0.30;;;;;;;;;;5077843;22;20292;-84
2023/12/15 21:21:26;;;;;;;0.30;0.30;;;;;;;;;;4996240;28;20221;-83
2023/12/15 21:23:57;;;;;;;0.30;0.30;;;;;;;;;;4986788;28;20765;-85
2023/12/15 21:26:33;;;;;;;0.37;0.37;;;;;;;;;;4988949;28;20301;-84
2023/12/15 21:29:06;;;;;;;0.30;0.30;;;;;;;;;;4989993;28;20265;-85
2023/12/15 21:31:39;;;;;;;0.13;0.13;;;;;;;;;;4990263;28;20221;-84
2023/12/15 21:34:08;;;;;;;1.50;0.53;;;;;;;;;;4988792;28;20601;-84
2023/12/15 21:36:41;;;;;;;0.50;0.50;;;;;;;;;;4990053;28;20256;-86
2023/12/15 21:39:13;;;;;;;0.53;0.30;;;;;;;;;;4987315;28;20221;-84
2023/12/15 21:41:47;;;;;;;0.20;0.20;;;;;;;;;;4989522;28;20252;-85
2023/12/15 21:44:18;;;;;;;0.40;0.40;;;;;;;;;;4984183;28;20808;-85
2023/12/15 21:46:53;;;;;;;0.10;0.10;;;;;;;;;;4988035;28;20316;-84
2023/12/15 21:49:22;;;;;;;0.43;0.43;;;;;;;;;;4986936;28;20260;-85
2023/12/15 21:51:51;;;;;;;1.03;0.70;;;;;;;;;;5000319;28;20741;-85
2023/12/15 21:54:21;;;;;;;1.00;1.00;;;;;;;;;;4999415;28;20320;-85
2023/12/15 21:56:51;;;;;;;0.63;0.63;;;;;;;;;;5009696;28;20221;-84
2023/12/15 21:59:19;;;;;;;0.60;0.60;;;;;;;;;;4996474;28;20225;-84
2023/12/15 22:01:48;;;;;;;2.10;0.40;;;;;;;;;;4991124;28;20763;-85
2023/12/15 22:04:25;;;;;;;0.20;0.20;;;;;;;;;;4989276;28;20726;-83
2023/12/15 22:07:00;;;;;;;1.00;0.50;;;;;;;;;;4989760;28;20340;-84
2023/12/15 22:09:26;;;;;;;1.13;0.50;;;;;;;;;;4986565;28;20224;-84
2023/12/15 22:11:54;;;;;;;0.20;0.20;;;;;;;;;;4990701;28;20247;-84
2023/12/15 22:14:23;;;;;;;0.43;0.40;;;;;;;;;;4986451;28;20328;-85
2023/12/15 22:16:53;;;;;;;0.20;0.20;;;;;;;;;;4988971;28;20237;-84
2023/12/15 22:19:23;;;;;;;0.20;0.20;;;;;;;;;;4988681;28;20316;-84
2023/12/15 22:21:54;;;;;;;0.70;0.20;;;;;;;;;;4988787;28;20233;-84
2023/12/15 22:24:22;;;;;;;0.50;0.50;;;;;;;;;;4986512;28;20236;-84
2023/12/15 22:26:51;;;;;;;0.50;0.30;;;;;;;;;;4989185;28;20255;-84
2023/12/15 22:29:19;;;;;;;0.70;0.70;;;;;;;;;;4976876;28;20221;-86
2023/12/15 22:31:49;;;;;;;0.47;0.40;;;;;;;;;;4988301;28;20263;-85
2023/12/15 22:34:20;;;;;;;0.20;0.20;;;;;;;;;;4989307;28;20229;-84
2023/12/15 22:36:55;;;;;;;0.20;0.20;;;;;;;;;;4987733;28;20240;-83
2023/12/15 22:39:25;;;;;;;0.60;0.37;;;;;;;;;;4980378;28;20282;-84
2023/12/15 22:41:53;;;;;;;0.30;0.30;;;;;;;;;;4988747;28;20213;-84
2023/12/15 22:44:20;;;;;;;0.20;0.20;;;;;;;;;;4989060;28;20291;-81
2023/12/15 22:46:50;;;;;;;0.70;0.70;;;;;;;;;;4987685;28;20232;-84
2023/12/15 22:49:18;;;;;;;0.43;0.43;;;;;;;;;;4988895;28;20616;-82
2023/12/15 22:51:48;;;;;;;0.37;0.37;;;;;;;;;;4984600;28;20229;-83
2023/12/15 22:54:17;;;;;;;0.10;0.10;;;;;;;;;;4989037;28;20229;-83
2023/12/15 22:56:48;;;;;;;0.50;0.50;;;;;;;;;;4986879;28;20296;-84
2023/12/15 22:59:17;;;;;;;0.47;0.40;;;;;;;;;;4987352;28;20303;-84
2023/12/15 23:01:45;;;;;;;0.40;0.27;;;;;;;;;;4988455;28;20775;-83
2023/12/15 23:04:14;;;;;;;0.10;0.10;;;;;;;;;;4988578;28;20236;-83
2023/12/15 23:06:44;;;;;;;3.00;0.50;;;;;;;;;;4987220;28;20255;-84
2023/12/15 23:09:11;;;;;;;0.30;0.30;;;;;;;;;;4988189;28;20225;-84
2023/12/15 23:11:42;;;;;;;0.20;0.20;;;;;;;;;;4987306;28;20315;-83
2023/12/15 23:14:10;;;;;;;1.60;0.43;;;;;;;;;;4987292;28;20237;-83
2023/12/15 23:16:43;;;;;;;0.50;0.50;;;;;;;;;;4987934;28;20217;-84
2023/12/15 23:19:13;;;;;;;0.73;0.40;;;;;;;;;;4987370;28;20236;-83
2023/12/15 23:21:40;;;;;;;0.87;0.67;;;;;;;;;;4985725;28;20275;-83
2023/12/15 23:24:10;;;;;;;1.73;0.40;;;;;;;;;;4987850;28;20201;-83
2023/12/15 23:26:43;;;;;;;0.67;0.53;;;;;;;;;;4986738;28;20715;-81
2023/12/15 23:29:11;;;;;;;0.37;0.37;;;;;;;;;;4986690;28;20228;-83
2023/12/15 23:31:40;;;;;;;0.40;0.40;;;;;;;;;;4987229;28;20214;-83
2023/12/15 23:34:13;;;;;;;0.20;0.20;;;;;;;;;;4988248;28;20578;-84
2023/12/15 23:36:44;;;;;;;0.60;0.40;;;;;;;;;;4990192;28;20235;-83
2023/12/15 23:39:13;;;;;;;0.10;0.10;;;;;;;;;;4997365;28;20354;-83
2023/12/15 23:41:45;;;;;;;0.10;0.10;;;;;;;;;;4997000;28;20659;-84
2023/12/15 23:44:15;;;;;;;0.23;0.23;;;;;;;;;;4996001;28;20205;-83
2023/12/15 23:46:45;;;;;;;0.83;0.27;;;;;;;;;;4995538;28;20225;-83
2023/12/15 23:49:13;;;;;;;0.17;0.17;;;;;;;;;;4993373;28;20303;-84
2023/12/15 23:51:41;;;;;;;0.83;0.80;;;;;;;;;;4995273;28;20698;-83
2023/12/15 23:54:09;;;;;;;1.13;0.23;;;;;;;;;;4997480;28;20224;-83
2023/12/15 23:56:40;;;;;;;0.20;0.20;;;;;;;;;;5000162;28;20284;-83
2023/12/15 23:59:12;;;;;;;0.10;0.10;;;;;;;;;;5001135;28;20243;-83
